AVA27D SKCL-SECU
Flight info
| Callsign | AVA27D |
|---|---|
| Flight time | 1h 14m |
| Altitude | 38000 |
| Route | CLO1D CLO UP778 BOKAN UP533 QIT UT5 VUTNI |
| Aircraft | A319/M-SDE3FGHIRWY/LB1 |
Departure
| Time | 2026-05-04 19:34 |
|---|---|
| Airport | Alfonso Bonilla Aragon International Airport (SKCL) |
Arrival
| Time | 2026-05-04 20:48 |
|---|---|
| Airport | Mariscal Lamar Airport (SECU) |
| Time | Latitude | Longitude | Altitude | Speed | Heading |
|---|---|---|---|---|---|
| 2026-05-04 19:01 | 3.53811 | -76.38804 | 3163 ft | 0 kts | 110° |
| 2026-05-04 19:22 | 3.53812 | -76.38808 | 3190 ft | 3 kts | 110° |
| 2026-05-04 19:22 | 3.53821 | -76.38833 | 3162 ft | 4 kts | 109° |
| 2026-05-04 19:22 | 3.53829 | -76.38852 | 3167 ft | 3 kts | 134° |
| 2026-05-04 19:23 | 3.53830 | -76.38853 | 3167 ft | 0 kts | 136° |
| 2026-05-04 19:28 | 3.53828 | -76.38849 | 3162 ft | 2 kts | 122° |
| 2026-05-04 19:28 | 3.53832 | -76.38831 | 3162 ft | 3 kts | 54° |
| 2026-05-04 19:28 | 3.53857 | -76.38821 | 3162 ft | 4 kts | 21° |
| 2026-05-04 19:29 | 3.53883 | -76.38809 | 3163 ft | 5 kts | 30° |
| 2026-05-04 19:29 | 3.53912 | -76.38778 | 3163 ft | 8 kts | 62° |
| 2026-05-04 19:29 | 3.53915 | -76.38714 | 3163 ft | 11 kts | 94° |
| 2026-05-04 19:29 | 3.53879 | -76.38642 | 3163 ft | 13 kts | 139° |
| 2026-05-04 19:30 | 3.53807 | -76.38590 | 3164 ft | 13 kts | 150° |
| 2026-05-04 19:30 | 3.53727 | -76.38543 | 3162 ft | 14 kts | 148° |
| 2026-05-04 19:30 | 3.53642 | -76.38500 | 3162 ft | 14 kts | 162° |
| 2026-05-04 19:30 | 3.53550 | -76.38473 | 3161 ft | 14 kts | 174° |
| 2026-05-04 19:31 | 3.53450 | -76.38485 | 3161 ft | 15 kts | 188° |
| 2026-05-04 19:31 | 3.53347 | -76.38500 | 3163 ft | 15 kts | 188° |
| 2026-05-04 19:31 | 3.53242 | -76.38520 | 3160 ft | 16 kts | 191° |
| 2026-05-04 19:31 | 3.53134 | -76.38541 | 3162 ft | 16 kts | 190° |
| 2026-05-04 19:32 | 3.53034 | -76.38556 | 3160 ft | 11 kts | 181° |
| 2026-05-04 19:32 | 3.52993 | -76.38506 | 3159 ft | 9 kts | 103° |
| 2026-05-04 19:32 | 3.52997 | -76.38441 | 3159 ft | 10 kts | 66° |
| 2026-05-04 19:32 | 3.53048 | -76.38390 | 3157 ft | 11 kts | 17° |
| 2026-05-04 19:33 | 3.53126 | -76.38377 | 3157 ft | 12 kts | 8° |
| 2026-05-04 19:33 | 3.53237 | -76.38360 | 3159 ft | 32 kts | 9° |
| 2026-05-04 19:33 | 3.53693 | -76.38281 | 3165 ft | 98 kts | 10° |
| 2026-05-04 19:33 | 3.54554 | -76.38131 | 3167 ft | 151 kts | 10° |
| 2026-05-04 19:34 | 3.55686 | -76.37954 | 3538 ft | 164 kts | 8° |
| 2026-05-04 19:34 | 3.56804 | -76.37801 | 4132 ft | 161 kts | 9° |
| 2026-05-04 19:34 | 3.57908 | -76.37620 | 4742 ft | 161 kts | 10° |
| 2026-05-04 19:34 | 3.59010 | -76.37408 | 5352 ft | 163 kts | 10° |
| 2026-05-04 19:35 | 3.60124 | -76.37163 | 5993 ft | 165 kts | 12° |
| 2026-05-04 19:35 | 3.61282 | -76.36898 | 6398 ft | 181 kts | 10° |
| 2026-05-04 19:35 | 3.62596 | -76.36664 | 6701 ft | 202 kts | 7° |
| 2026-05-04 19:35 | 3.64056 | -76.36476 | 7072 ft | 221 kts | 5° |
| 2026-05-04 19:36 | 3.65622 | -76.36317 | 7549 ft | 232 kts | 7° |
| 2026-05-04 19:36 | 3.67203 | -76.36073 | 8352 ft | 230 kts | 10° |
| 2026-05-04 19:36 | 3.68784 | -76.35766 | 9092 ft | 233 kts | 12° |
| 2026-05-04 19:36 | 3.70393 | -76.35487 | 9763 ft | 239 kts | 2° |
| 2026-05-04 19:37 | 3.72010 | -76.35842 | 9966 ft | 241 kts | 330° |
| 2026-05-04 19:37 | 3.73194 | -76.37004 | 10004 ft | 241 kts | 298° |
| 2026-05-04 19:37 | 3.73627 | -76.38603 | 10009 ft | 241 kts | 268° |
| 2026-05-04 19:37 | 3.73211 | -76.40217 | 10163 ft | 244 kts | 237° |
| 2026-05-04 19:38 | 3.72051 | -76.41441 | 10826 ft | 244 kts | 209° |
| 2026-05-04 19:38 | 3.70458 | -76.41958 | 11460 ft | 243 kts | 179° |
| 2026-05-04 19:38 | 3.68788 | -76.41733 | 12112 ft | 243 kts | 166° |
| 2026-05-04 19:38 | 3.67126 | -76.41390 | 12801 ft | 244 kts | 165° |
| 2026-05-04 19:39 | 3.65477 | -76.41047 | 13477 ft | 246 kts | 165° |
| 2026-05-04 19:39 | 3.63792 | -76.40704 | 14134 ft | 249 kts | 168° |
| 2026-05-04 19:39 | 3.62014 | -76.40612 | 14512 ft | 267 kts | 176° |
| 2026-05-04 19:39 | 3.60075 | -76.40600 | 14721 ft | 291 kts | 177° |
| 2026-05-04 19:40 | 3.57965 | -76.40600 | 14950 ft | 314 kts | 177° |
| 2026-05-04 19:40 | 3.55696 | -76.40608 | 15142 ft | 338 kts | 178° |
| 2026-05-04 19:40 | 3.53263 | -76.40620 | 15268 ft | 360 kts | 178° |
| 2026-05-04 19:40 | 3.50691 | -76.40631 | 15385 ft | 379 kts | 178° |
| 2026-05-04 19:41 | 3.48003 | -76.40638 | 15501 ft | 395 kts | 178° |
| 2026-05-04 19:41 | 3.45236 | -76.40642 | 15619 ft | 410 kts | 178° |
| 2026-05-04 19:41 | 3.42336 | -76.40674 | 15825 ft | 422 kts | 181° |
| 2026-05-04 19:41 | 3.39429 | -76.41254 | 16190 ft | 431 kts | 197° |
| 2026-05-04 19:42 | 3.36707 | -76.42559 | 16597 ft | 437 kts | 208° |
| 2026-05-04 19:42 | 3.34049 | -76.44071 | 17008 ft | 440 kts | 208° |
| 2026-05-04 19:42 | 3.31389 | -76.45593 | 17404 ft | 443 kts | 208° |
| 2026-05-04 19:42 | 3.28700 | -76.47132 | 17790 ft | 446 kts | 208° |
| 2026-05-04 19:43 | 3.25986 | -76.48682 | 18200 ft | 449 kts | 208° |
| 2026-05-04 19:43 | 3.23297 | -76.50215 | 18568 ft | 453 kts | 207° |
| 2026-05-04 19:43 | 3.20537 | -76.51785 | 19075 ft | 459 kts | 208° |
| 2026-05-04 19:43 | 3.17752 | -76.53367 | 19611 ft | 461 kts | 208° |
| 2026-05-04 19:44 | 3.14963 | -76.54954 | 19971 ft | 461 kts | 208° |
| 2026-05-04 19:44 | 3.12162 | -76.56550 | 20285 ft | 463 kts | 208° |
| 2026-05-04 19:44 | 3.09356 | -76.58151 | 20591 ft | 465 kts | 208° |
| 2026-05-04 19:44 | 3.06537 | -76.59757 | 20892 ft | 467 kts | 208° |
| 2026-05-04 19:45 | 3.03700 | -76.61373 | 21174 ft | 469 kts | 208° |
| 2026-05-04 19:45 | 3.00856 | -76.62990 | 21453 ft | 471 kts | 208° |
| 2026-05-04 19:45 | 2.97996 | -76.64616 | 21731 ft | 473 kts | 208° |
| 2026-05-04 19:45 | 2.95161 | -76.66229 | 21986 ft | 475 kts | 208° |
| 2026-05-04 19:46 | 2.92287 | -76.67865 | 22251 ft | 476 kts | 208° |
| 2026-05-04 19:46 | 2.89402 | -76.69507 | 22511 ft | 478 kts | 208° |
| 2026-05-04 19:46 | 2.86509 | -76.71155 | 22741 ft | 479 kts | 208° |
| 2026-05-04 19:46 | 2.83606 | -76.72809 | 22969 ft | 481 kts | 208° |
| 2026-05-04 19:47 | 2.80693 | -76.74468 | 23199 ft | 483 kts | 208° |
| 2026-05-04 19:47 | 2.77764 | -76.76137 | 23401 ft | 484 kts | 208° |
| 2026-05-04 19:47 | 2.74827 | -76.77810 | 23609 ft | 486 kts | 208° |
| 2026-05-04 19:47 | 2.71885 | -76.79485 | 23782 ft | 487 kts | 208° |
| 2026-05-04 19:48 | 2.68967 | -76.81147 | 23975 ft | 489 kts | 208° |
| 2026-05-04 19:48 | 2.66001 | -76.82833 | 24160 ft | 490 kts | 208° |
| 2026-05-04 19:48 | 2.63038 | -76.84518 | 24343 ft | 491 kts | 208° |
| 2026-05-04 19:48 | 2.60061 | -76.86214 | 24524 ft | 492 kts | 208° |
| 2026-05-04 19:49 | 2.57076 | -76.87914 | 24661 ft | 493 kts | 208° |
| 2026-05-04 19:49 | 2.54092 | -76.89610 | 24832 ft | 494 kts | 208° |
| 2026-05-04 19:49 | 2.51134 | -76.91293 | 25006 ft | 495 kts | 208° |
| 2026-05-04 19:49 | 2.48139 | -76.92999 | 25176 ft | 496 kts | 208° |
| 2026-05-04 19:50 | 2.45144 | -76.94705 | 25333 ft | 497 kts | 208° |
| 2026-05-04 19:50 | 2.42129 | -76.96420 | 25492 ft | 498 kts | 208° |
| 2026-05-04 19:50 | 2.39119 | -76.98132 | 25665 ft | 499 kts | 208° |
| 2026-05-04 19:50 | 2.36089 | -76.99852 | 25832 ft | 500 kts | 207° |
| 2026-05-04 19:51 | 2.33053 | -77.01573 | 26033 ft | 500 kts | 208° |
| 2026-05-04 19:51 | 2.30025 | -77.03293 | 26281 ft | 499 kts | 208° |
| 2026-05-04 19:51 | 2.26999 | -77.05013 | 26523 ft | 499 kts | 208° |
| 2026-05-04 19:51 | 2.23986 | -77.06729 | 26778 ft | 498 kts | 208° |
| 2026-05-04 19:52 | 2.21009 | -77.08426 | 27006 ft | 498 kts | 207° |
| 2026-05-04 19:52 | 2.17964 | -77.10162 | 27213 ft | 498 kts | 207° |
| 2026-05-04 19:52 | 2.14986 | -77.11857 | 27454 ft | 498 kts | 207° |
| 2026-05-04 19:52 | 2.11972 | -77.13569 | 27719 ft | 498 kts | 207° |
| 2026-05-04 19:53 | 2.08954 | -77.15283 | 27989 ft | 497 kts | 207° |
| 2026-05-04 19:53 | 2.05945 | -77.16991 | 28262 ft | 497 kts | 207° |
| 2026-05-04 19:53 | 2.02937 | -77.18700 | 28552 ft | 496 kts | 207° |
| 2026-05-04 19:53 | 1.99937 | -77.20404 | 28840 ft | 496 kts | 207° |
| 2026-05-04 19:54 | 1.96934 | -77.22111 | 29119 ft | 495 kts | 207° |
| 2026-05-04 19:54 | 1.93972 | -77.23794 | 29409 ft | 495 kts | 207° |
| 2026-05-04 19:54 | 1.90983 | -77.25493 | 29757 ft | 494 kts | 207° |
| 2026-05-04 19:54 | 1.87994 | -77.27191 | 30096 ft | 493 kts | 207° |
| 2026-05-04 19:55 | 1.85012 | -77.28889 | 30363 ft | 492 kts | 207° |
| 2026-05-04 19:55 | 1.82039 | -77.30583 | 30624 ft | 492 kts | 207° |
| 2026-05-04 19:55 | 1.79067 | -77.32275 | 30890 ft | 491 kts | 207° |
| 2026-05-04 19:55 | 1.76092 | -77.33967 | 31191 ft | 491 kts | 207° |
| 2026-05-04 19:56 | 1.73159 | -77.35632 | 31477 ft | 490 kts | 207° |
| 2026-05-04 19:56 | 1.70159 | -77.37334 | 31780 ft | 489 kts | 207° |
| 2026-05-04 19:56 | 1.67235 | -77.38992 | 32077 ft | 488 kts | 207° |
| 2026-05-04 19:56 | 1.64283 | -77.40666 | 32394 ft | 488 kts | 207° |
| 2026-05-04 19:57 | 1.61338 | -77.42341 | 32763 ft | 486 kts | 207° |
| 2026-05-04 19:57 | 1.59390 | -77.43452 | 32976 ft | 486 kts | 207° |
| 2026-05-04 19:57 | 1.56446 | -77.45128 | 33282 ft | 485 kts | 207° |
| 2026-05-04 19:57 | 1.53511 | -77.46791 | 33628 ft | 484 kts | 207° |
| 2026-05-04 19:58 | 1.50575 | -77.48454 | 33975 ft | 483 kts | 207° |
| 2026-05-04 19:58 | 1.47653 | -77.50112 | 34295 ft | 483 kts | 207° |
| 2026-05-04 19:58 | 1.44734 | -77.51770 | 34528 ft | 483 kts | 207° |
| 2026-05-04 19:58 | 1.41808 | -77.53434 | 34767 ft | 483 kts | 207° |
| 2026-05-04 19:59 | 1.38917 | -77.55078 | 35097 ft | 482 kts | 207° |
| 2026-05-04 19:59 | 1.35991 | -77.56742 | 35342 ft | 482 kts | 208° |
| 2026-05-04 19:59 | 1.33086 | -77.58395 | 35632 ft | 481 kts | 208° |
| 2026-05-04 19:59 | 1.30168 | -77.60051 | 35901 ft | 481 kts | 207° |
| 2026-05-04 20:00 | 1.27261 | -77.61696 | 36172 ft | 480 kts | 207° |
| 2026-05-04 20:00 | 1.24361 | -77.63340 | 36433 ft | 479 kts | 208° |
| 2026-05-04 20:00 | 1.21457 | -77.64989 | 36696 ft | 478 kts | 208° |
| 2026-05-04 20:00 | 1.18565 | -77.66634 | 36997 ft | 478 kts | 208° |
| 2026-05-04 20:01 | 1.15711 | -77.68258 | 37154 ft | 478 kts | 208° |
| 2026-05-04 20:01 | 1.09924 | -77.71548 | 37236 ft | 479 kts | 208° |
| 2026-05-04 20:02 | 1.04103 | -77.74843 | 37310 ft | 482 kts | 208° |
| 2026-05-04 20:02 | 0.98251 | -77.78159 | 37345 ft | 482 kts | 208° |
| 2026-05-04 20:03 | 0.92413 | -77.81480 | 37102 ft | 483 kts | 208° |
| 2026-05-04 20:03 | 0.86620 | -77.84784 | 37139 ft | 483 kts | 208° |
| 2026-05-04 20:04 | 0.80797 | -77.88145 | 37140 ft | 484 kts | 212° |
| 2026-05-04 20:04 | 0.75382 | -77.92139 | 37141 ft | 483 kts | 215° |
| 2026-05-04 20:05 | 0.69983 | -77.96155 | 37168 ft | 484 kts | 215° |
| 2026-05-04 20:05 | 0.64568 | -78.00182 | 37164 ft | 484 kts | 215° |
| 2026-05-04 20:06 | 0.59160 | -78.04205 | 37195 ft | 484 kts | 215° |
| 2026-05-04 20:06 | 0.53780 | -78.08211 | 37196 ft | 484 kts | 215° |
| 2026-05-04 20:07 | 0.48362 | -78.12243 | 37188 ft | 484 kts | 215° |
| 2026-05-04 20:07 | 0.42958 | -78.16267 | 37221 ft | 484 kts | 215° |
| 2026-05-04 20:08 | 0.37583 | -78.20271 | 37220 ft | 484 kts | 215° |
| 2026-05-04 20:08 | 0.32173 | -78.24301 | 37220 ft | 484 kts | 216° |
| 2026-05-04 20:09 | 0.26771 | -78.28325 | 37242 ft | 484 kts | 216° |
| 2026-05-04 20:09 | 0.21406 | -78.32315 | 37240 ft | 484 kts | 215° |
| 2026-05-04 20:10 | 0.16012 | -78.36325 | 37233 ft | 483 kts | 215° |
| 2026-05-04 20:10 | 0.10602 | -78.40353 | 37231 ft | 484 kts | 216° |
| 2026-05-04 20:11 | 0.05202 | -78.44380 | 37230 ft | 484 kts | 216° |
| 2026-05-04 20:11 | -0.00170 | -78.48355 | 37243 ft | 483 kts | 212° |
| 2026-05-04 20:12 | -0.06187 | -78.51234 | 37250 ft | 479 kts | 194° |
| 2026-05-04 20:12 | -0.12722 | -78.52404 | 37252 ft | 477 kts | 186° |
| 2026-05-04 20:13 | -0.19305 | -78.53353 | 37251 ft | 477 kts | 186° |
| 2026-05-04 20:13 | -0.25844 | -78.54309 | 37250 ft | 477 kts | 186° |
| 2026-05-04 20:14 | -0.32439 | -78.55268 | 37270 ft | 477 kts | 186° |
| 2026-05-04 20:14 | -0.38976 | -78.56218 | 37269 ft | 477 kts | 186° |
| 2026-05-04 20:15 | -0.45557 | -78.57179 | 37285 ft | 477 kts | 186° |
| 2026-05-04 20:15 | -0.52131 | -78.58135 | 37285 ft | 477 kts | 186° |
| 2026-05-04 20:16 | -0.58705 | -78.59087 | 37285 ft | 477 kts | 186° |
| 2026-05-04 20:16 | -0.65295 | -78.60038 | 37291 ft | 477 kts | 186° |
| 2026-05-04 20:17 | -0.71824 | -78.60988 | 37368 ft | 477 kts | 186° |
| 2026-05-04 20:17 | -0.78404 | -78.61948 | 37395 ft | 477 kts | 186° |
| 2026-05-04 20:18 | -0.84988 | -78.62901 | 37410 ft | 478 kts | 186° |
| 2026-05-04 20:18 | -0.91578 | -78.63866 | 37410 ft | 478 kts | 186° |
| 2026-05-04 20:19 | -0.98119 | -78.64819 | 37411 ft | 478 kts | 186° |
| 2026-05-04 20:19 | -1.04714 | -78.65771 | 37383 ft | 478 kts | 186° |
| 2026-05-04 20:19 | -1.08010 | -78.66246 | 37265 ft | 478 kts | 186° |
| 2026-05-04 20:20 | -1.11270 | -78.66719 | 37272 ft | 478 kts | 186° |
| 2026-05-04 20:20 | -1.17846 | -78.67674 | 37275 ft | 477 kts | 186° |
| 2026-05-04 20:21 | -1.24428 | -78.68630 | 37249 ft | 478 kts | 186° |
| 2026-05-04 20:21 | -1.34296 | -78.70057 | 37245 ft | 480 kts | 186° |
| 2026-05-04 20:22 | -1.40929 | -78.71017 | 37304 ft | 481 kts | 186° |
| 2026-05-04 20:22 | -1.47557 | -78.71981 | 37347 ft | 481 kts | 186° |
| 2026-05-04 20:23 | -1.54146 | -78.72938 | 37387 ft | 481 kts | 186° |
| 2026-05-04 20:23 | -1.60770 | -78.73903 | 37421 ft | 481 kts | 186° |
| 2026-05-04 20:24 | -1.67410 | -78.74859 | 37421 ft | 481 kts | 186° |
| 2026-05-04 20:24 | -1.70722 | -78.75337 | 37191 ft | 481 kts | 186° |
| 2026-05-04 20:24 | -1.74031 | -78.75820 | 37191 ft | 481 kts | 186° |
| 2026-05-04 20:25 | -1.80616 | -78.76782 | 37184 ft | 481 kts | 186° |
| 2026-05-04 20:25 | -1.87230 | -78.77741 | 37186 ft | 481 kts | 186° |
| 2026-05-04 20:26 | -1.93850 | -78.78703 | 37198 ft | 480 kts | 186° |
| 2026-05-04 20:26 | -2.00465 | -78.79661 | 37202 ft | 479 kts | 186° |
| 2026-05-04 20:27 | -2.03755 | -78.80138 | 37028 ft | 474 kts | 186° |
| 2026-05-04 20:27 | -2.06993 | -78.80611 | 36777 ft | 464 kts | 186° |
| 2026-05-04 20:27 | -2.10152 | -78.81072 | 36538 ft | 454 kts | 186° |
| 2026-05-04 20:27 | -2.13244 | -78.81522 | 36296 ft | 444 kts | 186° |
| 2026-05-04 20:28 | -2.16231 | -78.81957 | 36110 ft | 434 kts | 186° |
| 2026-05-04 20:28 | -2.19178 | -78.82386 | 35956 ft | 422 kts | 186° |
| 2026-05-04 20:28 | -2.22071 | -78.82804 | 35495 ft | 416 kts | 185° |
| 2026-05-04 20:28 | -2.24908 | -78.83214 | 35350 ft | 406 kts | 185° |
| 2026-05-04 20:29 | -2.27714 | -78.83620 | 34879 ft | 406 kts | 185° |
| 2026-05-04 20:29 | -2.30507 | -78.84024 | 34433 ft | 405 kts | 185° |
| 2026-05-04 20:29 | -2.33288 | -78.84429 | 34051 ft | 402 kts | 185° |
| 2026-05-04 20:29 | -2.36048 | -78.84830 | 33604 ft | 400 kts | 185° |
| 2026-05-04 20:30 | -2.38792 | -78.85228 | 33219 ft | 397 kts | 185° |
| 2026-05-04 20:30 | -2.41518 | -78.85622 | 32860 ft | 395 kts | 185° |
| 2026-05-04 20:30 | -2.44232 | -78.86013 | 32416 ft | 394 kts | 185° |
| 2026-05-04 20:30 | -2.46922 | -78.86401 | 31945 ft | 395 kts | 185° |
| 2026-05-04 20:31 | -2.49654 | -78.86796 | 31470 ft | 396 kts | 185° |
| 2026-05-04 20:31 | -2.52356 | -78.87407 | 31001 ft | 401 kts | 199° |
| 2026-05-04 20:31 | -2.54771 | -78.88814 | 30570 ft | 405 kts | 219° |
| 2026-05-04 20:31 | -2.56638 | -78.90920 | 30093 ft | 408 kts | 238° |
| 2026-05-04 20:32 | -2.57773 | -78.93520 | 29557 ft | 409 kts | 256° |
| 2026-05-04 20:32 | -2.58044 | -78.96334 | 29048 ft | 407 kts | 275° |
| 2026-05-04 20:32 | -2.57438 | -78.99082 | 28511 ft | 404 kts | 294° |
| 2026-05-04 20:32 | -2.56044 | -79.01488 | 28000 ft | 397 kts | 312° |
| 2026-05-04 20:33 | -2.54064 | -79.03296 | 27471 ft | 386 kts | 330° |
| 2026-05-04 20:33 | -2.51678 | -79.04418 | 26989 ft | 375 kts | 347° |
| 2026-05-04 20:33 | -2.49141 | -79.04798 | 26516 ft | 365 kts | 4° |
| 2026-05-04 20:33 | -2.46638 | -79.04650 | 26049 ft | 357 kts | 8° |
| 2026-05-04 20:34 | -2.44188 | -79.04340 | 25593 ft | 351 kts | 11° |
| 2026-05-04 20:34 | -2.41789 | -79.03947 | 25137 ft | 346 kts | 12° |
| 2026-05-04 20:34 | -2.39427 | -79.03528 | 24641 ft | 342 kts | 12° |
| 2026-05-04 20:34 | -2.37096 | -79.03118 | 24203 ft | 338 kts | 12° |
| 2026-05-04 20:35 | -2.34847 | -79.02497 | 23769 ft | 335 kts | 25° |
| 2026-05-04 20:35 | -2.32837 | -79.01344 | 23279 ft | 333 kts | 39° |
| 2026-05-04 20:35 | -2.31181 | -78.99737 | 22767 ft | 332 kts | 53° |
| 2026-05-04 20:35 | -2.29982 | -78.97771 | 22333 ft | 333 kts | 67° |
| 2026-05-04 20:36 | -2.29324 | -78.95586 | 21845 ft | 334 kts | 81° |
| 2026-05-04 20:36 | -2.29254 | -78.93262 | 21357 ft | 336 kts | 96° |
| 2026-05-04 20:36 | -2.29786 | -78.90989 | 20870 ft | 334 kts | 110° |
| 2026-05-04 20:36 | -2.30866 | -78.88948 | 20396 ft | 332 kts | 124° |
| 2026-05-04 20:37 | -2.32424 | -78.87255 | 19933 ft | 331 kts | 139° |
| 2026-05-04 20:37 | -2.34356 | -78.86015 | 19479 ft | 331 kts | 153° |
| 2026-05-04 20:37 | -2.36538 | -78.85298 | 19028 ft | 331 kts | 167° |
| 2026-05-04 20:37 | -2.38826 | -78.85155 | 18584 ft | 331 kts | 180° |
| 2026-05-04 20:38 | -2.41119 | -78.85343 | 18136 ft | 330 kts | 185° |
| 2026-05-04 20:38 | -2.43379 | -78.85667 | 17807 ft | 323 kts | 187° |
| 2026-05-04 20:38 | -2.45562 | -78.86042 | 17531 ft | 315 kts | 187° |
| 2026-05-04 20:38 | -2.47710 | -78.86424 | 17082 ft | 313 kts | 187° |
| 2026-05-04 20:39 | -2.49847 | -78.86792 | 16584 ft | 310 kts | 187° |
| 2026-05-04 20:39 | -2.51948 | -78.87223 | 16103 ft | 307 kts | 191° |
| 2026-05-04 20:39 | -2.53979 | -78.87746 | 15657 ft | 303 kts | 193° |
| 2026-05-04 20:39 | -2.55987 | -78.88312 | 15308 ft | 294 kts | 193° |
| 2026-05-04 20:40 | -2.57920 | -78.88869 | 14938 ft | 285 kts | 193° |
| 2026-05-04 20:40 | -2.59798 | -78.89403 | 14574 ft | 278 kts | 193° |
| 2026-05-04 20:40 | -2.61635 | -78.89914 | 14216 ft | 271 kts | 193° |
| 2026-05-04 20:40 | -2.63437 | -78.90408 | 13868 ft | 264 kts | 192° |
| 2026-05-04 20:41 | -2.65189 | -78.90886 | 13503 ft | 257 kts | 193° |
| 2026-05-04 20:41 | -2.66879 | -78.91343 | 13212 ft | 246 kts | 193° |
| 2026-05-04 20:41 | -2.68510 | -78.91781 | 12902 ft | 241 kts | 192° |
| 2026-05-04 20:41 | -2.70124 | -78.92213 | 12625 ft | 239 kts | 192° |
| 2026-05-04 20:42 | -2.71727 | -78.92643 | 12312 ft | 238 kts | 192° |
| 2026-05-04 20:42 | -2.73320 | -78.93071 | 11999 ft | 236 kts | 191° |
| 2026-05-04 20:42 | -2.74897 | -78.93495 | 11685 ft | 234 kts | 192° |
| 2026-05-04 20:42 | -2.76460 | -78.93914 | 11374 ft | 232 kts | 193° |
| 2026-05-04 20:43 | -2.78011 | -78.94331 | 11064 ft | 229 kts | 192° |
| 2026-05-04 20:43 | -2.79489 | -78.94887 | 10761 ft | 227 kts | 206° |
| 2026-05-04 20:43 | -2.80764 | -78.95796 | 10480 ft | 222 kts | 221° |
| 2026-05-04 20:43 | -2.81737 | -78.96945 | 10527 ft | 208 kts | 232° |
| 2026-05-04 20:44 | -2.82590 | -78.98107 | 10521 ft | 203 kts | 232° |
| 2026-05-04 20:44 | -2.83418 | -78.99223 | 10497 ft | 202 kts | 231° |
| 2026-05-04 20:44 | -2.84254 | -79.00347 | 10411 ft | 200 kts | 231° |
| 2026-05-04 20:44 | -2.85081 | -79.01461 | 10331 ft | 199 kts | 231° |
| 2026-05-04 20:45 | -2.85900 | -79.02567 | 10305 ft | 198 kts | 231° |
| 2026-05-04 20:45 | -2.86723 | -79.03677 | 10207 ft | 197 kts | 231° |
| 2026-05-04 20:45 | -2.87590 | -79.04639 | 9967 ft | 176 kts | 214° |
| 2026-05-04 20:45 | -2.88658 | -79.05087 | 9717 ft | 160 kts | 188° |
| 2026-05-04 20:46 | -2.89742 | -79.05029 | 9496 ft | 154 kts | 163° |
| 2026-05-04 20:46 | -2.90671 | -79.04534 | 9229 ft | 151 kts | 137° |
| 2026-05-04 20:46 | -2.91307 | -79.03713 | 8944 ft | 149 kts | 115° |
| 2026-05-04 20:46 | -2.91559 | -79.02725 | 8826 ft | 147 kts | 91° |
| 2026-05-04 20:47 | -2.91499 | -79.02051 | 8798 ft | 146 kts | 75° |
| 2026-05-04 20:47 | -2.91080 | -79.01133 | 8812 ft | 146 kts | 53° |
| 2026-05-04 20:47 | -2.90232 | -79.00087 | 8622 ft | 146 kts | 50° |
| 2026-05-04 20:47 | -2.89613 | -78.99285 | 8415 ft | 145 kts | 52° |
| 2026-05-04 20:48 | -2.89209 | -78.98796 | 8311 ft | 114 kts | 49° |
| 2026-05-04 20:48 | -2.88891 | -78.98385 | 8293 ft | 24 kts | 53° |
| 2026-05-04 20:48 | -2.88860 | -78.98344 | 8291 ft | 7 kts | 55° |
| 2026-05-04 20:48 | -2.88815 | -78.98281 | 8289 ft | 15 kts | 54° |
| 2026-05-04 20:49 | -2.88766 | -78.98211 | 8289 ft | 11 kts | 60° |
| 2026-05-04 20:49 | -2.88745 | -78.98158 | 8289 ft | 5 kts | 72° |
| 2026-05-04 20:49 | -2.88725 | -78.98157 | 8290 ft | 3 kts | 302° |
| 2026-05-04 20:49 | -2.88730 | -78.98174 | 8288 ft | 2 kts | 242° |
| 2026-05-04 20:50 | -2.88734 | -78.98181 | 8289 ft | 1 kts | 241° |
| 2026-05-04 20:50 | -2.88741 | -78.98192 | 8289 ft | 3 kts | 231° |
| 2026-05-04 20:50 | -2.88765 | -78.98215 | 8289 ft | 6 kts | 224° |
| 2026-05-04 20:50 | -2.88804 | -78.98258 | 8289 ft | 10 kts | 229° |
| 2026-05-04 20:51 | -2.88854 | -78.98319 | 8290 ft | 13 kts | 231° |
| 2026-05-04 20:51 | -2.88908 | -78.98387 | 8293 ft | 11 kts | 231° |
| 2026-05-04 20:51 | -2.88948 | -78.98440 | 8295 ft | 8 kts | 233° |
| 2026-05-04 20:51 | -2.88978 | -78.98480 | 8297 ft | 6 kts | 234° |
| 2026-05-04 20:52 | -2.89000 | -78.98510 | 8298 ft | 5 kts | 233° |
| 2026-05-04 20:52 | -2.89017 | -78.98533 | 8297 ft | 3 kts | 233° |
| 2026-05-04 20:52 | -2.89034 | -78.98556 | 8299 ft | 7 kts | 232° |
| 2026-05-04 20:52 | -2.89067 | -78.98602 | 8301 ft | 7 kts | 243° |
| 2026-05-04 20:53 | -2.89057 | -78.98637 | 8302 ft | 5 kts | 315° |
| 2026-05-04 20:53 | -2.89042 | -78.98660 | 8303 ft | 4 kts | 276° |
| 2026-05-04 20:53 | -2.89054 | -78.98685 | 8303 ft | 4 kts | 242° |
| 2026-05-04 20:53 | -2.89054 | -78.98711 | 8305 ft | 4 kts | 294° |
| 2026-05-04 20:54 | -2.89027 | -78.98734 | 8305 ft | 0 kts | 323° |